sensor_id;sensor_type;location;lat;lon;timestamp;pressure;altitude;pressure_sealevel;temperature
65290;BMP180;51893;59.754;10.110;2023-12-22T00:00:50;97488.60;;;0.90
65290;BMP180;51893;59.754;10.110;2023-12-22T00:03:38;97495.60;;;0.90
65290;BMP180;51893;59.754;10.110;2023-12-22T00:06:06;97497.80;;;1.00
65290;BMP180;51893;59.754;10.110;2023-12-22T00:08:36;97491.60;;;1.00
65290;BMP180;51893;59.754;10.110;2023-12-22T00:11:04;97497.80;;;1.10
65290;BMP180;51893;59.754;10.110;2023-12-22T00:13:32;97499.00;;;1.10
65290;BMP180;51893;59.754;10.110;2023-12-22T00:16:03;97508.80;;;1.10
65290;BMP180;51893;59.754;10.110;2023-12-22T00:18:31;97507.40;;;1.10
65290;BMP180;51893;59.754;10.110;2023-12-22T00:21:00;97502.00;;;1.10
65290;BMP180;51893;59.754;10.110;2023-12-22T00:23:30;97516.00;;;1.00
65290;BMP180;51893;59.754;10.110;2023-12-22T00:26:02;97516.20;;;1.00
65290;BMP180;51893;59.754;10.110;2023-12-22T00:28:30;97520.00;;;1.00
65290;BMP180;51893;59.754;10.110;2023-12-22T00:31:00;97527.80;;;1.08
65290;BMP180;51893;59.754;10.110;2023-12-22T00:33:28;97541.80;;;1.10
65290;BMP180;51893;59.754;10.110;2023-12-22T00:35:58;97535.40;;;1.10
65290;BMP180;51893;59.754;10.110;2023-12-22T00:38:25;97534.40;;;1.04
65290;BMP180;51893;59.754;10.110;2023-12-22T00:40:54;97545.00;;;1.00
65290;BMP180;51893;59.754;10.110;2023-12-22T00:43:23;97556.80;;;1.00
65290;BMP180;51893;59.754;10.110;2023-12-22T00:45:52;97554.80;;;1.00
65290;BMP180;51893;59.754;10.110;2023-12-22T00:48:20;97558.80;;;1.00
65290;BMP180;51893;59.754;10.110;2023-12-22T00:50:48;97566.60;;;1.00
65290;BMP180;51893;59.754;10.110;2023-12-22T00:53:16;97569.00;;;1.00
65290;BMP180;51893;59.754;10.110;2023-12-22T00:55:44;97578.60;;;1.00
65290;BMP180;51893;59.754;10.110;2023-12-22T00:58:12;97582.40;;;1.00
65290;BMP180;51893;59.754;10.110;2023-12-22T01:00:40;97580.60;;;1.00
65290;BMP180;51893;59.754;10.110;2023-12-22T01:03:09;97578.80;;;1.00
65290;BMP180;51893;59.754;10.110;2023-12-22T01:05:40;97593.00;;;1.00
65290;BMP180;51893;59.754;10.110;2023-12-22T01:08:08;97596.40;;;1.00
65290;BMP180;51893;59.754;10.110;2023-12-22T01:10:37;97604.40;;;1.00
65290;BMP180;51893;59.754;10.110;2023-12-22T01:13:06;97609.60;;;1.00
65290;BMP180;51893;59.754;10.110;2023-12-22T01:15:34;97613.60;;;0.90
65290;BMP180;51893;59.754;10.110;2023-12-22T01:18:02;97612.20;;;0.90
65290;BMP180;51893;59.754;10.110;2023-12-22T01:20:33;97617.80;;;0.90
65290;BMP180;51893;59.754;10.110;2023-12-22T01:23:01;97627.20;;;0.90
65290;BMP180;51893;59.754;10.110;2023-12-22T01:25:29;97626.60;;;0.90
65290;BMP180;51893;59.754;10.110;2023-12-22T01:27:58;97623.20;;;0.90
65290;BMP180;51893;59.754;10.110;2023-12-22T01:30:27;97636.00;;;0.86
65290;BMP180;51893;59.754;10.110;2023-12-22T01:32:55;97643.00;;;0.80
65290;BMP180;51893;59.754;10.110;2023-12-22T01:35:24;97644.20;;;0.74
65290;BMP180;51893;59.754;10.110;2023-12-22T01:37:52;97644.80;;;0.70
65290;BMP180;51893;59.754;10.110;2023-12-22T01:40:20;97645.00;;;0.70
65290;BMP180;51893;59.754;10.110;2023-12-22T01:42:49;97647.40;;;0.60
65290;BMP180;51893;59.754;10.110;2023-12-22T01:45:17;97648.60;;;0.60
65290;BMP180;51893;59.754;10.110;2023-12-22T01:47:47;97653.20;;;0.60
65290;BMP180;51893;59.754;10.110;2023-12-22T01:50:16;97654.40;;;0.60
65290;BMP180;51893;59.754;10.110;2023-12-22T01:52:45;97662.60;;;0.70
65290;BMP180;51893;59.754;10.110;2023-12-22T01:55:14;97673.40;;;0.80
65290;BMP180;51893;59.754;10.110;2023-12-22T01:57:44;97678.80;;;0.82
65290;BMP180;51893;59.754;10.110;2023-12-22T02:00:14;97684.80;;;0.90
65290;BMP180;51893;59.754;10.110;2023-12-22T02:02:42;97687.20;;;0.96
65290;BMP180;51893;59.754;10.110;2023-12-22T02:05:10;97693.60;;;1.00
65290;BMP180;51893;59.754;10.110;2023-12-22T02:07:43;97697.60;;;0.94
65290;BMP180;51893;59.754;10.110;2023-12-22T02:10:11;97698.00;;;0.90
65290;BMP180;51893;59.754;10.110;2023-12-22T02:12:40;97701.20;;;0.92
65290;BMP180;51893;59.754;10.110;2023-12-22T02:15:08;97709.40;;;1.00
65290;BMP180;51893;59.754;10.110;2023-12-22T02:17:57;97721.00;;;1.00
65290;BMP180;51893;59.754;10.110;2023-12-22T02:20:27;97724.00;;;1.10
65290;BMP180;51893;59.754;10.110;2023-12-22T02:22:56;97734.00;;;1.10
65290;BMP180;51893;59.754;10.110;2023-12-22T02:25:25;97739.40;;;1.10
65290;BMP180;51893;59.754;10.110;2023-12-22T02:28:02;97740.00;;;1.10
65290;BMP180;51893;59.754;10.110;2023-12-22T02:33:31;97747.20;;;1.18
65290;BMP180;51893;59.754;10.110;2023-12-22T02:36:06;97748.40;;;1.10
65290;BMP180;51893;59.754;10.110;2023-12-22T02:38:37;97750.00;;;1.02
65290;BMP180;51893;59.754;10.110;2023-12-22T02:41:08;97757.20;;;1.00
65290;BMP180;51893;59.754;10.110;2023-12-22T02:43:36;97760.80;;;1.00
65290;BMP180;51893;59.754;10.110;2023-12-22T02:46:15;97759.60;;;1.00
65290;BMP180;51893;59.754;10.110;2023-12-22T02:48:43;97759.00;;;1.00
65290;BMP180;51893;59.754;10.110;2023-12-22T02:51:11;97761.40;;;1.00
65290;BMP180;51893;59.754;10.110;2023-12-22T02:53:39;97764.20;;;1.00
65290;BMP180;51893;59.754;10.110;2023-12-22T02:56:08;97761.00;;;1.00
65290;BMP180;51893;59.754;10.110;2023-12-22T02:58:36;97771.60;;;1.00
65290;BMP180;51893;59.754;10.110;2023-12-22T03:01:04;97775.40;;;1.00
65290;BMP180;51893;59.754;10.110;2023-12-22T03:03:32;97782.40;;;1.00
65290;BMP180;51893;59.754;10.110;2023-12-22T03:06:01;97784.20;;;1.10
65290;BMP180;51893;59.754;10.110;2023-12-22T03:08:29;97795.40;;;1.10
65290;BMP180;51893;59.754;10.110;2023-12-22T03:10:57;97803.40;;;1.10
65290;BMP180;51893;59.754;10.110;2023-12-22T03:13:25;97804.40;;;1.18
65290;BMP180;51893;59.754;10.110;2023-12-22T03:15:53;97806.80;;;1.20
65290;BMP180;51893;59.754;10.110;2023-12-22T03:18:21;97812.60;;;1.16
65290;BMP180;51893;59.754;10.110;2023-12-22T03:20:50;97818.80;;;1.10
65290;BMP180;51893;59.754;10.110;2023-12-22T03:23:18;97817.00;;;1.10
65290;BMP180;51893;59.754;10.110;2023-12-22T03:25:47;97830.40;;;1.10
65290;BMP180;51893;59.754;10.110;2023-12-22T03:28:15;97832.00;;;1.10
65290;BMP180;51893;59.754;10.110;2023-12-22T03:30:42;97833.00;;;1.10
65290;BMP180;51893;59.754;10.110;2023-12-22T03:33:11;97839.60;;;1.10
65290;BMP180;51893;59.754;10.110;2023-12-22T03:35:40;97843.40;;;1.00
65290;BMP180;51893;59.754;10.110;2023-12-22T03:38:08;97845.60;;;1.00
65290;BMP180;51893;59.754;10.110;2023-12-22T03:40:36;97843.80;;;1.00
65290;BMP180;51893;59.754;10.110;2023-12-22T03:43:04;97842.60;;;1.00
65290;BMP180;51893;59.754;10.110;2023-12-22T03:45:32;97848.40;;;1.00
65290;BMP180;51893;59.754;10.110;2023-12-22T03:48:00;97854.80;;;1.02
65290;BMP180;51893;59.754;10.110;2023-12-22T03:50:28;97863.20;;;1.06
65290;BMP180;51893;59.754;10.110;2023-12-22T03:52:56;97872.00;;;1.00
65290;BMP180;51893;59.754;10.110;2023-12-22T03:55:24;97867.80;;;1.00
65290;BMP180;51893;59.754;10.110;2023-12-22T03:57:52;97876.00;;;1.00
65290;BMP180;51893;59.754;10.110;2023-12-22T04:00:20;97877.20;;;1.00
65290;BMP180;51893;59.754;10.110;2023-12-22T04:02:48;97883.20;;;1.00
65290;BMP180;51893;59.754;10.110;2023-12-22T04:05:18;97888.60;;;0.90
65290;BMP180;51893;59.754;10.110;2023-12-22T04:07:46;97887.60;;;0.90
65290;BMP180;51893;59.754;10.110;2023-12-22T04:10:17;97896.40;;;0.90
65290;BMP180;51893;59.754;10.110;2023-12-22T04:12:45;97898.80;;;0.80
65290;BMP180;51893;59.754;10.110;2023-12-22T04:15:13;97903.80;;;0.80
65290;BMP180;51893;59.754;10.110;2023-12-22T04:17:41;97903.20;;;0.90
65290;BMP180;51893;59.754;10.110;2023-12-22T04:20:10;97912.00;;;0.82
65290;BMP180;51893;59.754;10.110;2023-12-22T04:22:38;97907.20;;;0.80
65290;BMP180;51893;59.754;10.110;2023-12-22T04:25:08;97906.60;;;0.80
65290;BMP180;51893;59.754;10.110;2023-12-22T04:27:36;97912.40;;;0.80
65290;BMP180;51893;59.754;10.110;2023-12-22T04:30:04;97914.00;;;0.80
65290;BMP180;51893;59.754;10.110;2023-12-22T04:32:33;97924.20;;;0.70
65290;BMP180;51893;59.754;10.110;2023-12-22T04:35:00;97921.60;;;0.60
65290;BMP180;51893;59.754;10.110;2023-12-22T04:37:28;97921.80;;;0.50
65290;BMP180;51893;59.754;10.110;2023-12-22T04:39:56;97924.80;;;0.40
65290;BMP180;51893;59.754;10.110;2023-12-22T04:42:24;97917.40;;;0.38
65290;BMP180;51893;59.754;10.110;2023-12-22T04:44:53;97931.20;;;0.30
65290;BMP180;51893;59.754;10.110;2023-12-22T04:47:24;97934.00;;;0.10
65290;BMP180;51893;59.754;10.110;2023-12-22T04:49:52;97942.40;;;0.00
65290;BMP180;51893;59.754;10.110;2023-12-22T04:52:20;97945.80;;;-0.10
65290;BMP180;51893;59.754;10.110;2023-12-22T04:54:48;97950.60;;;-0.20
65290;BMP180;51893;59.754;10.110;2023-12-22T04:57:16;97954.80;;;-0.30
65290;BMP180;51893;59.754;10.110;2023-12-22T04:59:45;97956.80;;;-0.30
65290;BMP180;51893;59.754;10.110;2023-12-22T05:02:14;97957.80;;;-0.38
65290;BMP180;51893;59.754;10.110;2023-12-22T05:04:42;97957.80;;;-0.40
65290;BMP180;51893;59.754;10.110;2023-12-22T05:07:10;97958.20;;;-0.34
65290;BMP180;51893;59.754;10.110;2023-12-22T05:09:42;97958.20;;;-0.40
65290;BMP180;51893;59.754;10.110;2023-12-22T05:12:10;97960.80;;;-0.40
65290;BMP180;51893;59.754;10.110;2023-12-22T05:14:38;97969.80;;;-0.50
65290;BMP180;51893;59.754;10.110;2023-12-22T05:17:06;97968.80;;;-0.50
65290;BMP180;51893;59.754;10.110;2023-12-22T05:19:35;97976.60;;;-0.50
65290;BMP180;51893;59.754;10.110;2023-12-22T05:22:03;97981.20;;;-0.54
65290;BMP180;51893;59.754;10.110;2023-12-22T05:24:31;97980.80;;;-0.60
65290;BMP180;51893;59.754;10.110;2023-12-22T05:26:59;97985.80;;;-0.70
65290;BMP180;51893;59.754;10.110;2023-12-22T05:29:27;97987.20;;;-0.70
65290;BMP180;51893;59.754;10.110;2023-12-22T05:31:55;97993.60;;;-0.80
65290;BMP180;51893;59.754;10.110;2023-12-22T05:34:23;97991.20;;;-0.80
65290;BMP180;51893;59.754;10.110;2023-12-22T05:36:51;97997.60;;;-0.80
65290;BMP180;51893;59.754;10.110;2023-12-22T05:39:19;97994.60;;;-0.80
65290;BMP180;51893;59.754;10.110;2023-12-22T05:41:47;97997.00;;;-0.80
65290;BMP180;51893;59.754;10.110;2023-12-22T05:44:15;98001.00;;;-0.80
65290;BMP180;51893;59.754;10.110;2023-12-22T05:46:44;98003.60;;;-0.76
65290;BMP180;51893;59.754;10.110;2023-12-22T05:49:12;98006.40;;;-0.80
65290;BMP180;51893;59.754;10.110;2023-12-22T05:51:40;97996.60;;;-0.80
65290;BMP180;51893;59.754;10.110;2023-12-22T05:54:09;98000.00;;;-0.80
65290;BMP180;51893;59.754;10.110;2023-12-22T05:56:38;98002.60;;;-0.90
65290;BMP180;51893;59.754;10.110;2023-12-22T05:59:06;98007.60;;;-0.90
65290;BMP180;51893;59.754;10.110;2023-12-22T06:01:34;98012.60;;;-0.86
65290;BMP180;51893;59.754;10.110;2023-12-22T06:04:04;98020.40;;;-0.80
65290;BMP180;51893;59.754;10.110;2023-12-22T06:06:32;98026.80;;;-0.80
65290;BMP180;51893;59.754;10.110;2023-12-22T06:09:00;98026.60;;;-0.80
65290;BMP180;51893;59.754;10.110;2023-12-22T06:11:28;98028.80;;;-0.80
65290;BMP180;51893;59.754;10.110;2023-12-22T06:13:56;98036.60;;;-0.80
65290;BMP180;51893;59.754;10.110;2023-12-22T06:16:24;98044.40;;;-0.90
65290;BMP180;51893;59.754;10.110;2023-12-22T06:18:52;98042.40;;;-0.90
65290;BMP180;51893;59.754;10.110;2023-12-22T06:21:20;98046.60;;;-1.00
65290;BMP180;51893;59.754;10.110;2023-12-22T06:23:48;98050.80;;;-1.00
65290;BMP180;51893;59.754;10.110;2023-12-22T06:26:16;98059.00;;;-1.10
65290;BMP180;51893;59.754;10.110;2023-12-22T06:28:44;98063.40;;;-1.10
65290;BMP180;51893;59.754;10.110;2023-12-22T06:31:21;98071.00;;;-1.10
65290;BMP180;51893;59.754;10.110;2023-12-22T06:33:51;98081.40;;;-1.20
65290;BMP180;51893;59.754;10.110;2023-12-22T06:36:24;98082.00;;;-1.20
65290;BMP180;51893;59.754;10.110;2023-12-22T06:38:53;98091.20;;;-1.20
65290;BMP180;51893;59.754;10.110;2023-12-22T06:41:27;98095.00;;;-1.20
65290;BMP180;51893;59.754;10.110;2023-12-22T06:43:57;98100.00;;;-1.20
65290;BMP180;51893;59.754;10.110;2023-12-22T06:46:29;98102.60;;;-1.20
65290;BMP180;51893;59.754;10.110;2023-12-22T06:48:59;98108.20;;;-1.20
65290;BMP180;51893;59.754;10.110;2023-12-22T06:51:32;98118.20;;;-1.20
65290;BMP180;51893;59.754;10.110;2023-12-22T06:54:04;98116.80;;;-1.20
65290;BMP180;51893;59.754;10.110;2023-12-22T06:56:35;98117.60;;;-1.10
65290;BMP180;51893;59.754;10.110;2023-12-22T06:59:03;98123.20;;;-1.08
65290;BMP180;51893;59.754;10.110;2023-12-22T07:01:35;98127.80;;;-1.04
65290;BMP180;51893;59.754;10.110;2023-12-22T07:04:05;98139.40;;;-1.10
65290;BMP180;51893;59.754;10.110;2023-12-22T07:06:35;98143.80;;;-1.10
65290;BMP180;51893;59.754;10.110;2023-12-22T07:11:46;98159.80;;;-1.10
65290;BMP180;51893;59.754;10.110;2023-12-22T07:14:14;98162.00;;;-1.10
65290;BMP180;51893;59.754;10.110;2023-12-22T07:16:43;98168.00;;;-1.02
65290;BMP180;51893;59.754;10.110;2023-12-22T07:19:13;98164.80;;;-1.00
65290;BMP180;51893;59.754;10.110;2023-12-22T07:21:41;98174.80;;;-1.00
65290;BMP180;51893;59.754;10.110;2023-12-22T07:24:13;98187.00;;;-1.00
65290;BMP180;51893;59.754;10.110;2023-12-22T07:26:43;98194.00;;;-0.90
65290;BMP180;51893;59.754;10.110;2023-12-22T07:29:14;98196.00;;;-0.90
65290;BMP180;51893;59.754;10.110;2023-12-22T07:31:42;98201.20;;;-0.90
65290;BMP180;51893;59.754;10.110;2023-12-22T07:34:12;98200.80;;;-0.90
65290;BMP180;51893;59.754;10.110;2023-12-22T07:36:40;98205.40;;;-0.90
65290;BMP180;51893;59.754;10.110;2023-12-22T07:39:17;98213.20;;;-0.94
65290;BMP180;51893;59.754;10.110;2023-12-22T07:41:51;98214.20;;;-0.94
65290;BMP180;51893;59.754;10.110;2023-12-22T07:44:22;98215.60;;;-0.90
65290;BMP180;51893;59.754;10.110;2023-12-22T07:46:57;98218.60;;;-0.90
65290;BMP180;51893;59.754;10.110;2023-12-22T07:49:30;98221.60;;;-1.00
65290;BMP180;51893;59.754;10.110;2023-12-22T07:52:00;98230.40;;;-1.02
65290;BMP180;51893;59.754;10.110;2023-12-22T07:54:31;98236.60;;;-1.10
65290;BMP180;51893;59.754;10.110;2023-12-22T07:56:58;98242.20;;;-1.10
65290;BMP180;51893;59.754;10.110;2023-12-22T07:59:26;98250.00;;;-1.10
65290;BMP180;51893;59.754;10.110;2023-12-22T08:01:59;98258.20;;;-1.10
65290;BMP180;51893;59.754;10.110;2023-12-22T08:04:28;98264.20;;;-1.10
65290;BMP180;51893;59.754;10.110;2023-12-22T08:06:56;98268.00;;;-1.10
65290;BMP180;51893;59.754;10.110;2023-12-22T08:09:24;98264.00;;;-1.08
65290;BMP180;51893;59.754;10.110;2023-12-22T08:11:52;98268.80;;;-1.10
65290;BMP180;51893;59.754;10.110;2023-12-22T08:14:22;98280.20;;;-1.10
65290;BMP180;51893;59.754;10.110;2023-12-22T08:16:50;98280.40;;;-1.06
65290;BMP180;51893;59.754;10.110;2023-12-22T08:19:19;98286.40;;;-1.00
65290;BMP180;51893;59.754;10.110;2023-12-22T08:21:50;98289.80;;;-0.90
65290;BMP180;51893;59.754;10.110;2023-12-22T08:24:21;98292.60;;;-0.90
65290;BMP180;51893;59.754;10.110;2023-12-22T08:26:51;98300.80;;;-0.90
65290;BMP180;51893;59.754;10.110;2023-12-22T08:29:19;98304.20;;;-0.90
65290;BMP180;51893;59.754;10.110;2023-12-22T08:31:48;98306.20;;;-0.92
65290;BMP180;51893;59.754;10.110;2023-12-22T08:34:16;98302.60;;;-0.90
65290;BMP180;51893;59.754;10.110;2023-12-22T08:36:44;98303.20;;;-0.86
65290;BMP180;51893;59.754;10.110;2023-12-22T08:39:13;98300.20;;;-0.80
65290;BMP180;51893;59.754;10.110;2023-12-22T08:41:41;98307.20;;;-0.80
65290;BMP180;51893;59.754;10.110;2023-12-22T08:44:10;98305.80;;;-0.80
65290;BMP180;51893;59.754;10.110;2023-12-22T08:46:38;98311.00;;;-0.80
65290;BMP180;51893;59.754;10.110;2023-12-22T08:49:07;98310.40;;;-0.80
65290;BMP180;51893;59.754;10.110;2023-12-22T08:51:36;98310.80;;;-0.80
65290;BMP180;51893;59.754;10.110;2023-12-22T08:54:04;98310.60;;;-0.80
65290;BMP180;51893;59.754;10.110;2023-12-22T08:56:34;98307.80;;;-0.80
65290;BMP180;51893;59.754;10.110;2023-12-22T08:59:03;98307.40;;;-0.80
65290;BMP180;51893;59.754;10.110;2023-12-22T09:01:32;98309.00;;;-0.80
65290;BMP180;51893;59.754;10.110;2023-12-22T09:04:02;98316.00;;;-0.80
65290;BMP180;51893;59.754;10.110;2023-12-22T09:06:30;98312.60;;;-0.90
65290;BMP180;51893;59.754;10.110;2023-12-22T09:08:58;98317.80;;;-0.90
65290;BMP180;51893;59.754;10.110;2023-12-22T09:11:26;98324.40;;;-0.90
65290;BMP180;51893;59.754;10.110;2023-12-22T09:13:54;98324.60;;;-0.92
65290;BMP180;51893;59.754;10.110;2023-12-22T09:16:23;98326.00;;;-1.00
65290;BMP180;51893;59.754;10.110;2023-12-22T09:18:53;98334.60;;;-1.10
65290;BMP180;51893;59.754;10.110;2023-12-22T09:21:21;98334.20;;;-1.20
65290;BMP180;51893;59.754;10.110;2023-12-22T09:23:51;98332.40;;;-1.20
65290;BMP180;51893;59.754;10.110;2023-12-22T09:26:20;98334.40;;;-1.20
65290;BMP180;51893;59.754;10.110;2023-12-22T09:28:49;98344.20;;;-1.22
65290;BMP180;51893;59.754;10.110;2023-12-22T09:31:18;98336.20;;;-1.30
65290;BMP180;51893;59.754;10.110;2023-12-22T09:33:47;98338.20;;;-1.30
65290;BMP180;51893;59.754;10.110;2023-12-22T09:36:15;98339.20;;;-1.32
65290;BMP180;51893;59.754;10.110;2023-12-22T09:38:43;98351.00;;;-1.44
65290;BMP180;51893;59.754;10.110;2023-12-22T09:41:12;98346.80;;;-1.50
65290;BMP180;51893;59.754;10.110;2023-12-22T09:43:44;98354.60;;;-1.40
65290;BMP180;51893;59.754;10.110;2023-12-22T09:46:18;98346.40;;;-1.40
65290;BMP180;51893;59.754;10.110;2023-12-22T09:48:49;98350.60;;;-1.30
65290;BMP180;51893;59.754;10.110;2023-12-22T09:51:20;98351.80;;;-1.30
65290;BMP180;51893;59.754;10.110;2023-12-22T09:53:50;98347.40;;;-1.30
65290;BMP180;51893;59.754;10.110;2023-12-22T09:56:20;98356.40;;;-1.20
65290;BMP180;51893;59.754;10.110;2023-12-22T09:58:51;98352.20;;;-1.26
65290;BMP180;51893;59.754;10.110;2023-12-22T10:01:22;98345.80;;;-1.20
65290;BMP180;51893;59.754;10.110;2023-12-22T10:03:51;98355.00;;;-1.10
65290;BMP180;51893;59.754;10.110;2023-12-22T10:06:19;98359.00;;;-1.00
65290;BMP180;51893;59.754;10.110;2023-12-22T10:08:49;98356.40;;;-0.90
65290;BMP180;51893;59.754;10.110;2023-12-22T10:11:20;98354.20;;;-0.82
65290;BMP180;51893;59.754;10.110;2023-12-22T10:13:50;98363.00;;;-0.70
65290;BMP180;51893;59.754;10.110;2023-12-22T10:16:21;98358.80;;;-0.60
65290;BMP180;51893;59.754;10.110;2023-12-22T10:18:49;98354.20;;;-0.50
65290;BMP180;51893;59.754;10.110;2023-12-22T10:21:18;98358.20;;;-0.48
65290;BMP180;51893;59.754;10.110;2023-12-22T10:23:45;98368.80;;;-0.50
65290;BMP180;51893;59.754;10.110;2023-12-22T10:26:13;98370.60;;;-0.40
65290;BMP180;51893;59.754;10.110;2023-12-22T10:28:42;98362.60;;;-0.20
65290;BMP180;51893;59.754;10.110;2023-12-22T10:31:10;98363.20;;;-0.20
65290;BMP180;51893;59.754;10.110;2023-12-22T10:33:38;98375.40;;;-0.20
65290;BMP180;51893;59.754;10.110;2023-12-22T10:36:08;98380.20;;;-0.20
65290;BMP180;51893;59.754;10.110;2023-12-22T10:38:36;98382.40;;;-0.20
65290;BMP180;51893;59.754;10.110;2023-12-22T10:41:06;98392.80;;;-0.10
65290;BMP180;51893;59.754;10.110;2023-12-22T10:43:39;98398.60;;;-0.10
65290;BMP180;51893;59.754;10.110;2023-12-22T10:46:09;98398.40;;;-0.10
65290;BMP180;51893;59.754;10.110;2023-12-22T10:48:40;98407.00;;;-0.10
65290;BMP180;51893;59.754;10.110;2023-12-22T10:51:10;98409.20;;;-0.02
65290;BMP180;51893;59.754;10.110;2023-12-22T10:53:42;98415.00;;;0.00
65290;BMP180;51893;59.754;10.110;2023-12-22T10:56:11;98414.40;;;0.00
65290;BMP180;51893;59.754;10.110;2023-12-22T10:58:39;98413.40;;;0.00
65290;BMP180;51893;59.754;10.110;2023-12-22T11:01:11;98422.20;;;0.00
65290;BMP180;51893;59.754;10.110;2023-12-22T11:03:44;98420.00;;;0.00
65290;BMP180;51893;59.754;10.110;2023-12-22T11:06:16;98426.20;;;-0.02
65290;BMP180;51893;59.754;10.110;2023-12-22T11:08:48;98424.00;;;-0.10
65290;BMP180;51893;59.754;10.110;2023-12-22T11:11:36;98430.80;;;-0.10
65290;BMP180;51893;59.754;10.110;2023-12-22T11:14:06;98429.40;;;-0.10
65290;BMP180;51893;59.754;10.110;2023-12-22T11:16:36;98431.00;;;-0.12
65290;BMP180;51893;59.754;10.110;2023-12-22T11:19:04;98430.40;;;-0.10
65290;BMP180;51893;59.754;10.110;2023-12-22T11:21:32;98437.00;;;-0.10
65290;BMP180;51893;59.754;10.110;2023-12-22T11:24:08;98448.40;;;0.00
65290;BMP180;51893;59.754;10.110;2023-12-22T11:26:38;98449.60;;;0.10
65290;BMP180;51893;59.754;10.110;2023-12-22T11:29:09;98447.00;;;0.12
65290;BMP180;51893;59.754;10.110;2023-12-22T11:31:39;98450.00;;;0.20
65290;BMP180;51893;59.754;10.110;2023-12-22T11:34:10;98450.20;;;0.20
65290;BMP180;51893;59.754;10.110;2023-12-22T11:36:48;98450.60;;;0.20
65290;BMP180;51893;59.754;10.110;2023-12-22T11:39:16;98446.40;;;0.30
65290;BMP180;51893;59.754;10.110;2023-12-22T11:41:47;98443.80;;;0.40
65290;BMP180;51893;59.754;10.110;2023-12-22T11:44:17;98454.60;;;0.40
65290;BMP180;51893;59.754;10.110;2023-12-22T11:46:44;98449.00;;;0.50
65290;BMP180;51893;59.754;10.110;2023-12-22T11:49:12;98454.60;;;0.50
65290;BMP180;51893;59.754;10.110;2023-12-22T11:51:44;98461.40;;;0.60
65290;BMP180;51893;59.754;10.110;2023-12-22T11:54:49;98464.00;;;0.54
65290;BMP180;51893;59.754;10.110;2023-12-22T11:59:55;98468.80;;;0.60
65290;BMP180;51893;59.754;10.110;2023-12-22T12:02:25;98478.20;;;0.60
65290;BMP180;51893;59.754;10.110;2023-12-22T12:04:58;98480.20;;;0.58
65290;BMP180;51893;59.754;10.110;2023-12-22T12:07:45;98481.60;;;0.60
65290;BMP180;51893;59.754;10.110;2023-12-22T12:13:06;98486.00;;;0.60
65290;BMP180;51893;59.754;10.110;2023-12-22T12:15:36;98495.60;;;0.60
65290;BMP180;51893;59.754;10.110;2023-12-22T12:18:05;98497.80;;;0.70
65290;BMP180;51893;59.754;10.110;2023-12-22T12:20:34;98501.00;;;0.70
65290;BMP180;51893;59.754;10.110;2023-12-22T12:23:03;98508.00;;;0.70
65290;BMP180;51893;59.754;10.110;2023-12-22T12:25:34;98511.80;;;0.70
65290;BMP180;51893;59.754;10.110;2023-12-22T12:28:09;98512.80;;;0.70
65290;BMP180;51893;59.754;10.110;2023-12-22T12:30:40;98519.00;;;0.70
65290;BMP180;51893;59.754;10.110;2023-12-22T12:33:11;98521.00;;;0.70
65290;BMP180;51893;59.754;10.110;2023-12-22T12:35:41;98521.20;;;0.70
65290;BMP180;51893;59.754;10.110;2023-12-22T12:38:28;98538.80;;;0.70
65290;BMP180;51893;59.754;10.110;2023-12-22T12:41:09;98531.40;;;0.70
65290;BMP180;51893;59.754;10.110;2023-12-22T12:43:42;98534.00;;;0.70
65290;BMP180;51893;59.754;10.110;2023-12-22T12:46:12;98536.80;;;0.70
65290;BMP180;51893;59.754;10.110;2023-12-22T12:48:41;98540.40;;;0.70
65290;BMP180;51893;59.754;10.110;2023-12-22T12:51:15;98544.00;;;0.70
65290;BMP180;51893;59.754;10.110;2023-12-22T12:53:44;98549.40;;;0.70
65290;BMP180;51893;59.754;10.110;2023-12-22T12:56:13;98558.80;;;0.68
65290;BMP180;51893;59.754;10.110;2023-12-22T12:58:42;98562.60;;;0.70
65290;BMP180;51893;59.754;10.110;2023-12-22T13:01:10;98561.60;;;0.72
65290;BMP180;51893;59.754;10.110;2023-12-22T13:03:56;98565.20;;;0.76
65290;BMP180;51893;59.754;10.110;2023-12-22T13:06:25;98570.60;;;0.74
65290;BMP180;51893;59.754;10.110;2023-12-22T13:08:53;98570.60;;;0.80
65290;BMP180;51893;59.754;10.110;2023-12-22T13:11:25;98571.00;;;0.80
65290;BMP180;51893;59.754;10.110;2023-12-22T13:13:54;98565.60;;;0.90
65290;BMP180;51893;59.754;10.110;2023-12-22T13:16:27;98574.80;;;0.90
65290;BMP180;51893;59.754;10.110;2023-12-22T13:19:00;98569.40;;;0.90
65290;BMP180;51893;59.754;10.110;2023-12-22T13:21:31;98574.60;;;0.90
65290;BMP180;51893;59.754;10.110;2023-12-22T13:24:18;98573.80;;;0.90
65290;BMP180;51893;59.754;10.110;2023-12-22T13:27:04;98583.00;;;1.00
65290;BMP180;51893;59.754;10.110;2023-12-22T13:29:45;98585.20;;;1.00
65290;BMP180;51893;59.754;10.110;2023-12-22T13:32:18;98585.80;;;0.98
65290;BMP180;51893;59.754;10.110;2023-12-22T13:34:55;98593.20;;;1.00
65290;BMP180;51893;59.754;10.110;2023-12-22T13:37:25;98597.60;;;0.96
65290;BMP180;51893;59.754;10.110;2023-12-22T13:39:59;98603.60;;;1.00
65290;BMP180;51893;59.754;10.110;2023-12-22T13:42:27;98606.80;;;1.00
65290;BMP180;51893;59.754;10.110;2023-12-22T13:44:56;98608.80;;;1.00
65290;BMP180;51893;59.754;10.110;2023-12-22T13:47:24;98603.40;;;1.00
65290;BMP180;51893;59.754;10.110;2023-12-22T13:49:55;98599.00;;;1.00
65290;BMP180;51893;59.754;10.110;2023-12-22T13:52:30;98601.80;;;1.00
65290;BMP180;51893;59.754;10.110;2023-12-22T13:55:18;98605.40;;;1.00
65290;BMP180;51893;59.754;10.110;2023-12-22T13:57:46;98604.20;;;1.00
65290;BMP180;51893;59.754;10.110;2023-12-22T14:02:52;98613.00;;;1.00
65290;BMP180;51893;59.754;10.110;2023-12-22T14:05:23;98614.20;;;1.00
65290;BMP180;51893;59.754;10.110;2023-12-22T14:07:52;98620.60;;;1.08
65290;BMP180;51893;59.754;10.110;2023-12-22T14:10:21;98625.60;;;1.10
65290;BMP180;51893;59.754;10.110;2023-12-22T14:12:49;98623.00;;;1.10
65290;BMP180;51893;59.754;10.110;2023-12-22T14:15:17;98623.20;;;1.10
65290;BMP180;51893;59.754;10.110;2023-12-22T14:17:45;98630.80;;;1.18
65290;BMP180;51893;59.754;10.110;2023-12-22T14:20:14;98633.60;;;1.20
65290;BMP180;51893;59.754;10.110;2023-12-22T14:22:42;98634.20;;;1.20
65290;BMP180;51893;59.754;10.110;2023-12-22T14:25:10;98639.00;;;1.20
65290;BMP180;51893;59.754;10.110;2023-12-22T14:27:38;98641.80;;;1.20
65290;BMP180;51893;59.754;10.110;2023-12-22T14:30:07;98643.80;;;1.20
65290;BMP180;51893;59.754;10.110;2023-12-22T14:32:35;98646.20;;;1.20